createdAt,value
2023-04-25T00:00:24.265Z,12.38
2023-04-25T00:03:09.522Z,12.36
2023-04-25T00:05:33.763Z,12.35
2023-04-25T00:07:58.729Z,12.33
2023-04-25T00:10:22.566Z,12.32
2023-04-25T00:12:46.151Z,12.32
2023-04-25T00:15:11.314Z,12.31
2023-04-25T00:17:36.065Z,12.31
2023-04-25T00:19:59.729Z,12.31
2023-04-25T00:22:23.135Z,12.31
2023-04-25T00:24:46.527Z,12.31
2023-04-25T00:27:13.367Z,12.30
2023-04-25T00:29:37.139Z,12.30
2023-04-25T00:32:00.901Z,12.31
2023-04-25T00:34:24.732Z,12.30
2023-04-25T00:36:48.201Z,12.29
2023-04-25T00:39:20.761Z,12.30
2023-04-25T00:41:45.676Z,12.30
2023-04-25T00:44:11.722Z,12.29
2023-04-25T00:46:36.369Z,12.30
2023-04-25T00:48:59.972Z,12.28
2023-04-25T00:51:24.112Z,12.27
2023-04-25T00:53:48.781Z,12.24
2023-04-25T00:56:13.055Z,12.23
2023-04-25T00:58:36.978Z,12.23
2023-04-25T01:01:02.202Z,12.20
2023-04-25T01:03:29.082Z,12.19
2023-04-25T01:05:52.748Z,12.18
2023-04-25T01:08:16.489Z,12.16
2023-04-25T01:10:40.086Z,12.14
2023-04-25T01:13:04.503Z,12.12
2023-04-25T01:15:28.246Z,12.08
2023-04-25T01:17:51.962Z,12.05
2023-04-25T01:20:16.293Z,12.04
2023-04-25T01:22:40.203Z,12.02
2023-04-25T01:25:05.403Z,12.01
2023-04-25T01:27:30.167Z,11.98
2023-04-25T01:29:56.103Z,11.96
2023-04-25T01:32:20.600Z,11.93
2023-04-25T01:34:44.247Z,11.90
2023-04-25T01:37:07.909Z,11.87
2023-04-25T01:39:31.793Z,11.84
2023-04-25T01:41:57.641Z,11.82
2023-04-25T01:44:21.396Z,11.80
2023-04-25T01:46:45.450Z,11.78
2023-04-25T01:49:09.055Z,11.79
2023-04-25T01:51:33.059Z,11.78
2023-04-25T01:54:01.017Z,11.77
2023-04-25T01:56:37.460Z,11.75
2023-04-25T01:59:01.619Z,11.74
2023-04-25T02:01:48.278Z,11.72
2023-04-25T02:04:19.935Z,11.68
2023-04-25T02:06:46.782Z,11.65
2023-04-25T02:09:10.802Z,11.62
2023-04-25T02:11:38.899Z,11.63
2023-04-25T02:14:37.871Z,11.61
2023-04-25T02:17:14.279Z,11.61
2023-04-25T02:19:51.015Z,11.60
2023-04-25T02:22:14.416Z,11.59
2023-04-25T02:24:38.114Z,11.56
2023-04-25T02:27:01.649Z,11.54
2023-04-25T02:29:25.207Z,11.53
2023-04-25T02:31:48.999Z,11.50
2023-04-25T02:34:14.419Z,11.47
2023-04-25T02:36:37.817Z,11.44
2023-04-25T02:39:01.512Z,11.41
2023-04-25T02:41:28.641Z,11.38
2023-04-25T02:43:52.577Z,11.35
2023-04-25T02:46:22.944Z,11.32
2023-04-25T02:48:52.580Z,11.31
2023-04-25T02:51:16.994Z,11.29
2023-04-25T02:53:40.450Z,11.26
2023-04-25T02:56:04.451Z,11.23
2023-04-25T02:58:28.285Z,11.20
2023-04-25T03:00:54.535Z,11.18
2023-04-25T03:03:18.442Z,11.15
2023-04-25T03:05:42.393Z,11.13
2023-04-25T03:08:06.329Z,11.12
2023-04-25T03:10:32.387Z,11.12
2023-04-25T03:12:58.556Z,11.12
2023-04-25T03:15:22.521Z,11.13
2023-04-25T03:17:46.076Z,11.13
2023-04-25T03:20:12.473Z,11.14
2023-04-25T03:22:35.187Z,11.13
2023-04-25T03:24:59.321Z,11.11
2023-04-25T03:27:23.180Z,11.10
2023-04-25T03:29:46.794Z,11.11
2023-04-25T03:32:11.035Z,11.11
2023-04-25T03:34:35.148Z,11.12
2023-04-25T03:36:59.041Z,11.14
2023-04-25T03:39:22.919Z,11.14
2023-04-25T03:41:47.468Z,11.15
2023-04-25T03:44:11.514Z,11.16
2023-04-25T03:46:37.316Z,11.18
2023-04-25T03:49:00.734Z,11.20
2023-04-25T03:51:32.617Z,11.22
2023-04-25T03:53:56.379Z,11.25
2023-04-25T03:56:46.075Z,11.27
2023-04-25T03:59:15.081Z,11.28
2023-04-25T04:01:38.620Z,11.30
2023-04-25T04:04:02.762Z,11.32
2023-04-25T04:06:27.159Z,11.32
2023-04-25T04:08:58.381Z,11.32
2023-04-25T04:11:21.990Z,11.32
2023-04-25T04:13:45.418Z,11.32
2023-04-25T04:16:09.258Z,11.33
2023-04-25T04:18:33.691Z,11.33
2023-04-25T04:21:00.451Z,11.33
2023-04-25T04:23:27.680Z,11.33
2023-04-25T04:25:52.637Z,11.32
2023-04-25T04:28:27.022Z,11.32
2023-04-25T04:31:10.713Z,11.31
2023-04-25T04:33:34.332Z,11.31
2023-04-25T04:36:00.005Z,11.31
2023-04-25T04:38:25.723Z,11.31
2023-04-25T04:40:52.768Z,11.32
2023-04-25T04:43:23.238Z,11.33
2023-04-25T04:45:52.674Z,11.34
2023-04-25T04:48:40.537Z,11.36
2023-04-25T04:51:37.061Z,11.37
2023-04-25T04:54:11.699Z,11.39
2023-04-25T04:56:58.925Z,11.37
2023-04-25T04:59:40.841Z,11.35
2023-04-25T05:02:15.231Z,11.33
2023-04-25T05:04:47.779Z,11.32
2023-04-25T05:07:29.968Z,11.32
2023-04-25T05:10:09.499Z,11.30
2023-04-25T05:12:53.106Z,11.27
2023-04-25T05:15:36.872Z,11.27
2023-04-25T05:18:18.910Z,11.30
2023-04-25T05:20:49.500Z,11.31
2023-04-25T05:23:24.354Z,11.32
2023-04-25T05:25:47.671Z,11.32
2023-04-25T05:28:18.856Z,11.32
2023-04-25T05:31:08.444Z,11.31
2023-04-25T05:33:46.736Z,11.28
2023-04-25T05:36:11.346Z,11.24
2023-04-25T05:38:35.356Z,11.20
2023-04-25T05:41:19.138Z,11.14
2023-04-25T05:43:52.100Z,11.09
2023-04-25T05:46:37.122Z,11.11
2023-04-25T05:49:17.544Z,11.12
2023-04-25T05:52:16.567Z,11.13
2023-04-25T05:54:44.718Z,11.14
2023-04-25T05:57:08.309Z,11.19
2023-04-25T05:59:31.861Z,11.22
2023-04-25T06:01:58.396Z,11.26
2023-04-25T06:04:22.247Z,11.26
2023-04-25T06:06:46.152Z,11.26
2023-04-25T06:09:09.600Z,11.28
2023-04-25T06:11:33.377Z,11.29
2023-04-25T06:13:57.060Z,11.28
2023-04-25T06:16:21.103Z,11.24
2023-04-25T06:18:44.995Z,11.23
2023-04-25T06:21:08.891Z,11.22
2023-04-25T06:23:32.436Z,11.21
2023-04-25T06:26:01.646Z,11.19
2023-04-25T06:28:25.336Z,11.18
2023-04-25T06:30:48.912Z,11.16
2023-04-25T06:33:15.108Z,11.13
2023-04-25T06:35:39.082Z,11.05
2023-04-25T06:38:04.180Z,10.96
2023-04-25T06:40:27.941Z,10.90
2023-04-25T06:42:51.719Z,10.84
2023-04-25T06:45:34.854Z,10.76
2023-04-25T06:47:58.636Z,10.70
2023-04-25T06:50:22.496Z,10.65
2023-04-25T06:52:45.951Z,10.64
2023-04-25T06:55:10.784Z,10.67
2023-04-25T06:57:54.283Z,10.67
2023-04-25T07:00:36.564Z,10.73
2023-04-25T07:03:00.432Z,10.84
2023-04-25T07:05:25.207Z,10.99
2023-04-25T07:07:49.135Z,11.21
2023-04-25T07:10:12.590Z,11.52
2023-04-25T07:12:36.250Z,11.89
2023-04-25T07:14:59.795Z,12.33
2023-04-25T07:17:23.720Z,12.68
2023-04-25T07:19:47.309Z,12.80
2023-04-25T07:22:11.251Z,12.86
2023-04-25T07:24:35.898Z,12.85
2023-04-25T07:26:59.812Z,12.73
2023-04-25T07:29:42.640Z,12.60
2023-04-25T07:32:06.678Z,12.53
2023-04-25T07:34:30.751Z,12.59
2023-04-25T07:36:55.075Z,12.76
2023-04-25T07:39:19.028Z,13.16
2023-04-25T07:41:42.712Z,13.48
2023-04-25T07:44:09.870Z,13.58
2023-04-25T07:46:33.350Z,13.70
2023-04-25T07:48:56.880Z,13.94
2023-04-25T07:51:22.713Z,14.19
2023-04-25T07:53:46.265Z,14.10
2023-04-25T07:56:11.187Z,13.94
2023-04-25T07:58:36.785Z,13.77
2023-04-25T08:01:01.260Z,13.55
2023-04-25T08:03:42.657Z,13.30
2023-04-25T08:06:12.599Z,13.09
2023-04-25T08:08:45.059Z,12.89
2023-04-25T08:11:11.019Z,12.72
2023-04-25T08:13:34.756Z,12.56
2023-04-25T08:15:58.434Z,12.39
2023-04-25T08:18:22.032Z,12.22
2023-04-25T08:20:45.803Z,12.09
2023-04-25T08:23:11.279Z,11.96
2023-04-25T08:25:48.480Z,11.81
2023-04-25T08:28:13.707Z,11.69
2023-04-25T08:30:37.479Z,11.62
2023-04-25T08:33:01.933Z,11.60
2023-04-25T08:35:44.937Z,11.51
2023-04-25T08:38:09.321Z,11.45
2023-04-25T08:40:38.723Z,11.44
2023-04-25T08:43:13.513Z,11.46
2023-04-25T08:45:39.784Z,11.46
2023-04-25T08:48:05.352Z,11.48
2023-04-25T08:50:30.700Z,11.44
2023-04-25T08:52:59.123Z,11.40
2023-04-25T08:55:24.493Z,11.36
2023-04-25T08:57:51.519Z,11.32
2023-04-25T09:00:16.651Z,11.30
2023-04-25T09:02:43.202Z,11.26
2023-04-25T09:05:10.393Z,11.16
2023-04-25T09:07:34.251Z,11.08
2023-04-25T09:09:59.852Z,11.02
2023-04-25T09:12:24.381Z,11.02
2023-04-25T09:15:04.381Z,11.07
2023-04-25T09:18:03.615Z,11.12
2023-04-25T09:20:35.246Z,11.18
2023-04-25T09:23:06.145Z,11.26
2023-04-25T09:25:36.722Z,11.30
2023-04-25T09:28:06.117Z,11.31
2023-04-25T09:30:34.060Z,11.33
2023-04-25T09:33:11.886Z,11.33
2023-04-25T09:35:39.217Z,11.30
2023-04-25T09:38:07.421Z,11.25
2023-04-25T09:40:50.054Z,11.16
2023-04-25T09:43:24.516Z,11.07
2023-04-25T09:45:48.807Z,11.01
2023-04-25T09:48:20.357Z,10.98
2023-04-25T09:50:44.494Z,10.98
2023-04-25T09:53:08.510Z,11.02
2023-04-25T09:55:51.624Z,11.05
2023-04-25T09:58:17.049Z,11.03
2023-04-25T10:00:42.977Z,11.00
2023-04-25T10:03:13.054Z,10.98
2023-04-25T10:05:52.939Z,10.99
2023-04-25T10:08:17.659Z,11.00
2023-04-25T10:10:42.009Z,11.01
2023-04-25T10:13:06.802Z,11.00
2023-04-25T10:15:30.935Z,11.02
2023-04-25T10:17:55.135Z,11.00
2023-04-25T10:20:19.448Z,10.98
2023-04-25T10:22:59.179Z,10.96
2023-04-25T10:25:23.466Z,10.92
2023-04-25T10:27:47.036Z,10.93
2023-04-25T10:30:15.530Z,10.93
2023-04-25T10:32:39.453Z,10.91
2023-04-25T10:35:14.102Z,10.95
2023-04-25T10:37:40.105Z,11.01
2023-04-25T10:40:11.472Z,11.03
2023-04-25T10:42:35.266Z,11.02
2023-04-25T10:45:06.149Z,10.99
2023-04-25T10:47:37.098Z,10.94
2023-04-25T10:50:07.167Z,10.90
2023-04-25T10:52:31.470Z,10.92
2023-04-25T10:54:56.562Z,10.96
2023-04-25T10:57:38.109Z,10.99
2023-04-25T11:00:13.217Z,10.99
2023-04-25T11:02:41.789Z,10.96
2023-04-25T11:05:07.172Z,10.95
2023-04-25T11:07:39.117Z,10.97
2023-04-25T11:10:04.878Z,11.04
2023-04-25T11:12:28.415Z,11.10
2023-04-25T11:15:01.568Z,11.18
2023-04-25T11:17:26.896Z,11.25
2023-04-25T11:19:50.678Z,11.33
2023-04-25T11:22:14.361Z,11.39
2023-04-25T11:24:38.490Z,11.44
2023-04-25T11:27:03.528Z,11.49
2023-04-25T11:29:38.508Z,11.55
2023-04-25T11:32:03.490Z,11.60
2023-04-25T11:34:31.054Z,11.64
2023-04-25T11:36:58.277Z,11.67
2023-04-25T11:39:46.843Z,11.68
2023-04-25T11:42:13.602Z,11.69
2023-04-25T11:44:40.304Z,11.70
2023-04-25T11:47:04.230Z,11.68
2023-04-25T11:49:32.507Z,11.62
2023-04-25T11:51:56.162Z,11.61
2023-04-25T11:54:20.307Z,11.59
2023-04-25T11:56:44.797Z,11.59
2023-04-25T11:59:17.135Z,11.58
2023-04-25T12:01:42.548Z,11.55
2023-04-25T12:04:14.255Z,11.51
2023-04-25T12:06:41.609Z,11.48
2023-04-25T12:09:08.362Z,11.50
2023-04-25T12:11:33.134Z,11.48
2023-04-25T12:13:56.824Z,11.48
2023-04-25T12:16:20.552Z,11.53
2023-04-25T12:18:44.861Z,11.54
2023-04-25T12:21:10.170Z,11.57
2023-04-25T12:23:33.731Z,11.59
2023-04-25T12:26:03.209Z,11.62
2023-04-25T12:28:38.344Z,11.64
2023-04-25T12:31:04.603Z,11.64
2023-04-25T12:33:30.017Z,11.65
2023-04-25T12:35:54.593Z,11.66
2023-04-25T12:38:23.915Z,11.64
2023-04-25T12:40:47.550Z,11.62
2023-04-25T12:43:11.084Z,11.62
2023-04-25T12:45:37.664Z,11.60
2023-04-25T12:48:03.392Z,11.60
2023-04-25T12:50:27.620Z,11.59
2023-04-25T12:52:51.505Z,11.56
2023-04-25T12:55:15.650Z,11.53
2023-04-25T12:57:39.348Z,11.50
2023-04-25T13:00:04.602Z,11.51
2023-04-25T13:02:28.199Z,11.50
2023-04-25T13:04:52.511Z,11.50
2023-04-25T13:07:17.076Z,11.53
2023-04-25T13:09:40.895Z,11.58
2023-04-25T13:12:05.491Z,11.64
2023-04-25T13:14:29.349Z,11.66
2023-04-25T13:16:52.866Z,11.68
2023-04-25T13:19:17.305Z,11.68
2023-04-25T13:21:45.056Z,11.72
2023-04-25T13:24:08.739Z,11.75
2023-04-25T13:26:36.081Z,11.77
2023-04-25T13:29:00.924Z,11.83
2023-04-25T13:31:25.036Z,11.87
2023-04-25T13:33:48.834Z,11.86
2023-04-25T13:36:12.514Z,11.85
2023-04-25T13:38:35.948Z,11.85
2023-04-25T13:40:59.509Z,11.86
2023-04-25T13:43:23.426Z,11.89
2023-04-25T13:45:47.103Z,11.92
2023-04-25T13:48:12.662Z,11.93
2023-04-25T13:50:36.572Z,11.94
2023-04-25T13:53:00.150Z,11.94
2023-04-25T13:55:23.904Z,11.94
2023-04-25T13:57:50.163Z,11.93
2023-04-25T14:00:16.096Z,11.91
2023-04-25T14:03:00.288Z,11.92
2023-04-25T14:05:23.954Z,11.90
2023-04-25T14:07:47.348Z,11.89
2023-04-25T14:10:12.091Z,11.89
2023-04-25T14:12:35.985Z,11.90
2023-04-25T14:14:59.589Z,11.90
2023-04-25T14:17:23.703Z,11.89
2023-04-25T14:19:48.655Z,11.87
2023-04-25T14:22:12.392Z,11.84
2023-04-25T14:24:36.846Z,11.82
2023-04-25T14:27:01.104Z,11.79
2023-04-25T14:29:24.612Z,11.75
2023-04-25T14:31:48.590Z,11.73
2023-04-25T14:34:12.195Z,11.68
2023-04-25T14:36:36.279Z,11.61
2023-04-25T14:39:00.372Z,11.55
2023-04-25T14:41:24.128Z,11.50
2023-04-25T14:43:47.531Z,11.46
2023-04-25T14:46:12.110Z,11.42
2023-04-25T14:48:36.040Z,11.43
2023-04-25T14:51:00.721Z,11.44
2023-04-25T14:53:24.826Z,11.44
2023-04-25T14:56:09.380Z,11.46
2023-04-25T14:58:33.465Z,11.45
2023-04-25T15:00:56.976Z,11.45
2023-04-25T15:03:20.774Z,11.46
2023-04-25T15:05:45.088Z,11.49
2023-04-25T15:08:08.652Z,11.50
2023-04-25T15:10:32.349Z,11.53
2023-04-25T15:12:56.201Z,11.53
2023-04-25T15:15:26.401Z,11.50
2023-04-25T15:17:51.029Z,11.46
2023-04-25T15:20:15.507Z,11.42
2023-04-25T15:22:39.576Z,11.39
2023-04-25T15:25:03.869Z,11.36
2023-04-25T15:27:27.873Z,11.33
2023-04-25T15:29:51.359Z,11.29
2023-04-25T15:32:15.509Z,11.22
2023-04-25T15:34:39.421Z,11.15
2023-04-25T15:37:02.798Z,11.09
2023-04-25T15:39:26.129Z,11.04
2023-04-25T15:41:50.549Z,10.96
2023-04-25T15:44:13.970Z,10.87
2023-04-25T15:46:37.628Z,10.81
2023-04-25T15:49:02.252Z,10.76
2023-04-25T15:51:26.285Z,10.69
2023-04-25T15:53:50.536Z,10.63
2023-04-25T15:56:14.544Z,10.57
2023-04-25T15:58:38.039Z,10.49
2023-04-25T16:01:01.762Z,10.45
2023-04-25T16:03:25.597Z,10.41
2023-04-25T16:05:49.599Z,10.37
2023-04-25T16:08:13.266Z,10.35
2023-04-25T16:10:38.300Z,10.31
2023-04-25T16:13:01.829Z,10.23
2023-04-25T16:15:25.609Z,10.15
2023-04-25T16:17:49.491Z,10.11
2023-04-25T16:20:15.603Z,10.07
2023-04-25T16:22:40.640Z,10.02
2023-04-25T16:25:05.149Z,9.94
2023-04-25T16:27:28.981Z,9.87
2023-04-25T16:29:52.577Z,9.83
2023-04-25T16:32:17.022Z,9.75
2023-04-25T16:34:40.947Z,9.65
2023-04-25T16:37:05.174Z,9.59
2023-04-25T16:39:28.855Z,9.55
2023-04-25T16:41:52.967Z,9.49
2023-04-25T16:44:16.730Z,9.43
2023-04-25T16:46:40.804Z,9.36
2023-04-25T16:49:04.430Z,9.31
2023-04-25T16:51:28.507Z,9.28
2023-04-25T16:53:52.591Z,9.24
2023-04-25T16:56:16.604Z,9.21
2023-04-25T16:58:40.229Z,9.17
2023-04-25T17:01:04.580Z,9.10
2023-04-25T17:03:28.553Z,9.06
2023-04-25T17:05:56.060Z,9.02
2023-04-25T17:08:19.962Z,8.97
2023-04-25T17:10:43.372Z,8.93
2023-04-25T17:13:07.166Z,8.91
2023-04-25T17:15:33.727Z,8.90
2023-04-25T17:17:59.844Z,8.85
2023-04-25T17:20:23.493Z,8.80
2023-04-25T17:22:47.075Z,8.76
2023-04-25T17:25:11.356Z,8.73
2023-04-25T17:27:35.880Z,8.70
2023-04-25T17:29:59.904Z,8.67
2023-04-25T17:32:23.789Z,8.63
2023-04-25T17:34:48.574Z,8.61
2023-04-25T17:37:16.041Z,8.58
2023-04-25T17:39:39.439Z,8.55
2023-04-25T17:42:06.128Z,8.53
2023-04-25T17:44:30.345Z,8.48
2023-04-25T17:46:53.822Z,8.45
2023-04-25T17:49:19.103Z,8.43
2023-04-25T17:51:43.096Z,8.41
2023-04-25T17:54:07.694Z,8.39
2023-04-25T17:56:37.021Z,8.36
2023-04-25T17:59:02.573Z,8.32
2023-04-25T18:01:26.822Z,8.30
2023-04-25T18:03:52.528Z,8.29
2023-04-25T18:06:16.578Z,8.27
2023-04-25T18:08:40.663Z,8.26
2023-04-25T18:11:06.068Z,8.25
2023-04-25T18:13:30.056Z,8.23
2023-04-25T18:15:55.986Z,8.22
2023-04-25T18:18:24.451Z,8.22
2023-04-25T18:20:48.123Z,8.20
2023-04-25T18:23:11.884Z,8.19
2023-04-25T18:25:36.255Z,8.19
2023-04-25T18:27:59.701Z,8.19
2023-04-25T18:30:23.493Z,8.20
2023-04-25T18:32:48.871Z,8.18
2023-04-25T18:35:12.680Z,8.17
2023-04-25T18:37:38.758Z,8.16
2023-04-25T18:40:12.206Z,8.16
2023-04-25T18:42:37.323Z,8.16
2023-04-25T18:45:00.836Z,8.17
2023-04-25T18:47:24.616Z,8.17
2023-04-25T18:49:51.766Z,8.19
2023-04-25T18:52:15.422Z,8.20
2023-04-25T18:54:39.902Z,8.22
2023-04-25T18:57:03.766Z,8.22
2023-04-25T18:59:27.505Z,8.22
2023-04-25T19:01:56.199Z,8.21
2023-04-25T19:04:22.805Z,8.20
2023-04-25T19:06:48.533Z,8.21
2023-04-25T19:09:15.101Z,8.20
2023-04-25T19:11:39.170Z,8.20
2023-04-25T19:14:02.587Z,8.19
2023-04-25T19:16:26.863Z,8.18
2023-04-25T19:18:52.850Z,8.18
2023-04-25T19:21:16.643Z,8.18
2023-04-25T19:23:41.338Z,8.18
2023-04-25T19:26:04.843Z,8.19
2023-04-25T19:28:29.750Z,8.18
2023-04-25T19:30:54.141Z,8.17
2023-04-25T19:33:18.289Z,8.16
2023-04-25T19:35:42.930Z,8.16
2023-04-25T19:38:06.534Z,8.16
2023-04-25T19:40:32.188Z,8.14
2023-04-25T19:42:58.165Z,8.12
2023-04-25T19:45:22.150Z,8.11
2023-04-25T19:47:56.109Z,8.11
2023-04-25T19:50:21.536Z,8.12
2023-04-25T19:52:45.293Z,8.11
2023-04-25T19:55:10.750Z,8.10
2023-04-25T19:57:37.188Z,8.09
2023-04-25T20:00:01.500Z,8.08
2023-04-25T20:02:36.362Z,8.08
2023-04-25T20:05:00.695Z,8.07
2023-04-25T20:07:24.168Z,8.06
2023-04-25T20:09:48.399Z,8.05
2023-04-25T20:12:12.324Z,8.05
2023-04-25T20:14:36.025Z,8.05
2023-04-25T20:17:00.288Z,8.04
2023-04-25T20:19:23.810Z,8.05
2023-04-25T20:21:47.283Z,8.04
2023-04-25T20:24:11.467Z,8.04
2023-04-25T20:26:35.144Z,8.03
2023-04-25T20:28:59.004Z,8.03
2023-04-25T20:31:23.617Z,8.02
2023-04-25T20:33:48.566Z,8.02
2023-04-25T20:36:14.506Z,8.02
2023-04-25T20:38:39.126Z,8.03
2023-04-25T20:41:03.181Z,8.02
2023-04-25T20:43:26.755Z,8.02
2023-04-25T20:45:52.315Z,8.01
2023-04-25T20:48:15.921Z,8.02
2023-04-25T20:50:39.488Z,8.01
2023-04-25T20:53:03.613Z,8.02
2023-04-25T20:55:27.458Z,8.01
2023-04-25T20:57:53.439Z,8.01
2023-04-25T21:00:27.399Z,8.00
2023-04-25T21:02:52.128Z,7.97
2023-04-25T21:05:15.773Z,7.96
2023-04-25T21:07:44.118Z,7.95
2023-04-25T21:10:09.059Z,7.95
2023-04-25T21:12:33.255Z,7.94
2023-04-25T21:14:57.472Z,7.93
2023-04-25T21:17:21.265Z,7.94
2023-04-25T21:19:44.808Z,7.94
2023-04-25T21:22:14.657Z,7.94
2023-04-25T21:24:38.210Z,7.94
2023-04-25T21:27:01.794Z,7.94
2023-04-25T21:29:25.675Z,7.94
2023-04-25T21:31:49.402Z,7.95
2023-04-25T21:34:16.129Z,7.96
2023-04-25T21:36:45.084Z,7.97
2023-04-25T21:39:19.301Z,7.97
2023-04-25T21:41:43.750Z,7.96
2023-04-25T21:44:07.290Z,7.95
2023-04-25T21:46:30.699Z,7.94
2023-04-25T21:48:54.784Z,7.94
2023-04-25T21:51:20.087Z,7.94
2023-04-25T21:53:43.618Z,7.95
2023-04-25T21:56:08.109Z,7.94
2023-04-25T21:58:31.579Z,7.94
2023-04-25T22:00:55.692Z,7.94
2023-04-25T22:03:19.389Z,7.95
2023-04-25T22:05:43.805Z,7.94
2023-04-25T22:08:07.664Z,7.94
2023-04-25T22:10:31.542Z,7.91
2023-04-25T22:12:56.448Z,7.89
2023-04-25T22:15:22.996Z,7.86
2023-04-25T22:17:48.272Z,7.84
2023-04-25T22:20:14.370Z,7.83
2023-04-25T22:22:39.203Z,7.78
2023-04-25T22:25:09.074Z,7.77
2023-04-25T22:27:33.681Z,7.75
2023-04-25T22:29:57.180Z,7.73
2023-04-25T22:32:20.864Z,7.72
2023-04-25T22:35:06.880Z,7.72
2023-04-25T22:37:30.813Z,7.69
2023-04-25T22:39:57.620Z,7.66
2023-04-25T22:42:21.218Z,7.61
2023-04-25T22:44:45.688Z,7.56
2023-04-25T22:47:09.775Z,7.52
2023-04-25T22:49:33.381Z,7.50
2023-04-25T22:51:56.952Z,7.47
2023-04-25T22:54:20.994Z,7.47
2023-04-25T22:56:44.664Z,7.44
2023-04-25T22:59:10.997Z,7.42
2023-04-25T23:01:33.944Z,7.40
2023-04-25T23:03:58.270Z,7.37
2023-04-25T23:06:22.214Z,7.36
2023-04-25T23:08:45.669Z,7.37
2023-04-25T23:11:09.750Z,7.39
2023-04-25T23:13:35.974Z,7.39
2023-04-25T23:16:04.494Z,7.39
2023-04-25T23:18:28.331Z,7.38
2023-04-25T23:20:52.931Z,7.36
2023-04-25T23:23:16.408Z,7.34
2023-04-25T23:25:39.959Z,7.34
2023-04-25T23:28:03.926Z,7.34
2023-04-25T23:30:27.654Z,7.33
2023-04-25T23:32:52.161Z,7.32
2023-04-25T23:35:15.854Z,7.32
2023-04-25T23:37:40.037Z,7.32
2023-04-25T23:40:07.711Z,7.32
2023-04-25T23:42:31.360Z,7.30
2023-04-25T23:44:57.080Z,7.27
2023-04-25T23:47:21.040Z,7.24
2023-04-25T23:49:45.989Z,7.22
2023-04-25T23:52:09.556Z,7.19
2023-04-25T23:54:33.087Z,7.16
2023-04-25T23:56:56.756Z,7.13
2023-04-25T23:59:20.361Z,7.11
